sensor_id;sensor_type;location;lat;lon;timestamp;pressure;altitude;pressure_sealevel;temperature;humidity
72066;BME280;59939;52.516;13.420;2022-09-12T00:01:29;100734.63;;;17.89;61.95
72066;BME280;59939;52.516;13.420;2022-09-12T00:04:34;100745.50;;;17.67;63.18
72066;BME280;59939;52.516;13.420;2022-09-12T00:07:37;100742.78;;;17.42;64.05
72066;BME280;59939;52.516;13.420;2022-09-12T00:10:42;100739.88;;;17.51;64.47
72066;BME280;59939;52.516;13.420;2022-09-12T00:13:47;100741.19;;;17.41;64.82
72066;BME280;59939;52.516;13.420;2022-09-12T00:16:51;100735.44;;;17.34;64.78
72066;BME280;59939;52.516;13.420;2022-09-12T00:19:56;100735.94;;;17.24;65.54
72066;BME280;59939;52.516;13.420;2022-09-12T00:23:00;100739.63;;;17.56;64.32
72066;BME280;59939;52.516;13.420;2022-09-12T00:26:05;100731.94;;;17.09;65.82
72066;BME280;59939;52.516;13.420;2022-09-12T00:29:14;100730.78;;;17.38;65.28
72066;BME280;59939;52.516;13.420;2022-09-12T00:32:19;100728.28;;;16.93;66.92
72066;BME280;59939;52.516;13.420;2022-09-12T00:35:23;100731.53;;;17.23;65.64
72066;BME280;59939;52.516;13.420;2022-09-12T00:38:27;100735.94;;;16.84;67.39
72066;BME280;59939;52.516;13.420;2022-09-12T00:41:34;100736.44;;;17.42;65.00
72066;BME280;59939;52.516;13.420;2022-09-12T00:44:43;100732.25;;;16.80;67.44
72066;BME280;59939;52.516;13.420;2022-09-12T00:47:46;100729.34;;;16.64;68.42
72066;BME280;59939;52.516;13.420;2022-09-12T00:50:50;100727.75;;;16.75;68.11
72066;BME280;59939;52.516;13.420;2022-09-12T00:53:55;100727.50;;;17.48;65.06
72066;BME280;59939;52.516;13.420;2022-09-12T00:57:03;100728.94;;;17.42;65.38
72066;BME280;59939;52.516;13.420;2022-09-12T01:00:20;100733.41;;;17.47;64.74
72066;BME280;59939;52.516;13.420;2022-09-12T01:03:24;100731.44;;;17.47;64.93
72066;BME280;59939;52.516;13.420;2022-09-12T01:06:39;100725.56;;;17.77;64.00
72066;BME280;59939;52.516;13.420;2022-09-12T01:09:44;100728.25;;;17.33;65.33
72066;BME280;59939;52.516;13.420;2022-09-12T01:12:49;100732.53;;;16.90;66.75
72066;BME280;59939;52.516;13.420;2022-09-12T01:15:52;100725.59;;;16.96;66.98
72066;BME280;59939;52.516;13.420;2022-09-12T01:19:45;100728.16;;;17.29;64.97
72066;BME280;59939;52.516;13.420;2022-09-12T01:23:07;100734.63;;;17.34;64.92
72066;BME280;59939;52.516;13.420;2022-09-12T01:30:21;100736.28;;;16.82;67.23
72066;BME280;59939;52.516;13.420;2022-09-12T01:33:53;100727.84;;;17.19;65.86
72066;BME280;59939;52.516;13.420;2022-09-12T01:37:14;100734.34;;;16.71;67.86
72066;BME280;59939;52.516;13.420;2022-09-12T01:40:25;100724.84;;;17.24;65.59
72066;BME280;59939;52.516;13.420;2022-09-12T01:43:35;100719.09;;;17.17;65.73
72066;BME280;59939;52.516;13.420;2022-09-12T01:46:50;100720.56;;;17.54;64.15
72066;BME280;59939;52.516;13.420;2022-09-12T01:50:04;100721.25;;;17.51;64.55
72066;BME280;59939;52.516;13.420;2022-09-12T01:53:22;100713.78;;;16.84;67.35
72066;BME280;59939;52.516;13.420;2022-09-12T01:56:32;100717.44;;;17.28;65.79
72066;BME280;59939;52.516;13.420;2022-09-12T01:59:48;100710.78;;;16.40;68.90
72066;BME280;59939;52.516;13.420;2022-09-12T02:03:16;100714.47;;;16.69;68.13
72066;BME280;59939;52.516;13.420;2022-09-12T02:10:08;100716.09;;;16.45;69.42
72066;BME280;59939;52.516;13.420;2022-09-12T02:13:21;100721.28;;;16.59;69.49
72066;BME280;59939;52.516;13.420;2022-09-12T02:16:31;100722.19;;;16.63;69.17
72066;BME280;59939;52.516;13.420;2022-09-12T02:19:42;100721.41;;;16.38;70.22
72066;BME280;59939;52.516;13.420;2022-09-12T02:22:49;100724.53;;;16.73;68.90
72066;BME280;59939;52.516;13.420;2022-09-12T02:26:00;100721.97;;;16.31;70.22
72066;BME280;59939;52.516;13.420;2022-09-12T02:29:05;100718.88;;;16.70;69.15
72066;BME280;59939;52.516;13.420;2022-09-12T02:32:29;100718.16;;;17.13;67.47
72066;BME280;59939;52.516;13.420;2022-09-12T02:35:45;100711.94;;;17.72;64.49
72066;BME280;59939;52.516;13.420;2022-09-12T02:38:52;100716.38;;;17.33;66.13
72066;BME280;59939;52.516;13.420;2022-09-12T02:41:58;100715.50;;;16.27;70.81
72066;BME280;59939;52.516;13.420;2022-09-12T02:45:03;100712.06;;;16.43;70.49
72066;BME280;59939;52.516;13.420;2022-09-12T02:48:29;100709.66;;;17.06;67.33
72066;BME280;59939;52.516;13.420;2022-09-12T02:51:36;100717.47;;;16.88;68.18
72066;BME280;59939;52.516;13.420;2022-09-12T02:54:40;100716.44;;;16.80;67.93
72066;BME280;59939;52.516;13.420;2022-09-12T02:57:44;100718.03;;;16.81;68.01
72066;BME280;59939;52.516;13.420;2022-09-12T03:01:11;100724.97;;;16.75;68.73
72066;BME280;59939;52.516;13.420;2022-09-12T03:04:47;100723.13;;;16.43;69.83
72066;BME280;59939;52.516;13.420;2022-09-12T03:12:01;100726.69;;;16.19;71.29
72066;BME280;59939;52.516;13.420;2022-09-12T03:18:46;100717.13;;;16.53;69.40
72066;BME280;59939;52.516;13.420;2022-09-12T03:22:14;100720.66;;;17.30;66.23
72066;BME280;59939;52.516;13.420;2022-09-12T03:25:30;100717.19;;;17.33;66.02
72066;BME280;59939;52.516;13.420;2022-09-12T03:28:38;100715.53;;;17.04;67.18
72066;BME280;59939;52.516;13.420;2022-09-12T03:31:53;100717.34;;;16.84;68.26
72066;BME280;59939;52.516;13.420;2022-09-12T03:34:57;100724.75;;;16.68;68.66
72066;BME280;59939;52.516;13.420;2022-09-12T03:38:01;100716.91;;;16.46;69.97
72066;BME280;59939;52.516;13.420;2022-09-12T03:41:08;100721.50;;;16.05;71.99
72066;BME280;59939;52.516;13.420;2022-09-12T03:44:24;100728.19;;;16.04;71.55
72066;BME280;59939;52.516;13.420;2022-09-12T03:47:28;100720.25;;;16.27;71.22
72066;BME280;59939;52.516;13.420;2022-09-12T03:50:32;100722.91;;;16.48;69.99
72066;BME280;59939;52.516;13.420;2022-09-12T03:53:37;100716.94;;;16.98;67.88
72066;BME280;59939;52.516;13.420;2022-09-12T03:56:54;100721.28;;;16.59;68.69
72066;BME280;59939;52.516;13.420;2022-09-12T03:59:58;100731.16;;;16.96;67.78
72066;BME280;59939;52.516;13.420;2022-09-12T04:03:02;100735.31;;;16.05;70.82
72066;BME280;59939;52.516;13.420;2022-09-12T04:06:07;100748.28;;;16.38;70.20
72066;BME280;59939;52.516;13.420;2022-09-12T04:09:11;100734.75;;;15.99;71.38
72066;BME280;59939;52.516;13.420;2022-09-12T04:12:15;100738.56;;;16.19;70.96
72066;BME280;59939;52.516;13.420;2022-09-12T04:15:19;100725.16;;;15.97;71.32
72066;BME280;59939;52.516;13.420;2022-09-12T04:18:23;100726.59;;;16.76;68.84
72066;BME280;59939;52.516;13.420;2022-09-12T04:21:41;100726.22;;;16.17;70.15
72066;BME280;59939;52.516;13.420;2022-09-12T04:24:52;100728.09;;;16.49;69.87
72066;BME280;59939;52.516;13.420;2022-09-12T04:27:56;100720.81;;;16.57;68.58
72066;BME280;59939;52.516;13.420;2022-09-12T04:31:04;100729.81;;;16.42;69.46
72066;BME280;59939;52.516;13.420;2022-09-12T04:34:10;100720.09;;;15.99;71.38
72066;BME280;59939;52.516;13.420;2022-09-12T04:37:15;100726.34;;;16.20;71.04
72066;BME280;59939;52.516;13.420;2022-09-12T04:40:19;100719.66;;;15.64;72.89
72066;BME280;59939;52.516;13.420;2022-09-12T04:43:24;100727.06;;;15.72;73.11
72066;BME280;59939;52.516;13.420;2022-09-12T04:46:38;100730.25;;;15.29;75.07
72066;BME280;59939;52.516;13.420;2022-09-12T04:49:47;100723.22;;;15.97;72.19
72066;BME280;59939;52.516;13.420;2022-09-12T04:52:53;100726.34;;;16.57;69.07
72066;BME280;59939;52.516;13.420;2022-09-12T04:56:01;100727.88;;;16.67;68.43
72066;BME280;59939;52.516;13.420;2022-09-12T04:59:08;100737.78;;;16.31;69.83
72066;BME280;59939;52.516;13.420;2022-09-12T05:02:13;100734.31;;;16.22;70.26
72066;BME280;59939;52.516;13.420;2022-09-12T05:05:17;100723.94;;;16.68;68.18
72066;BME280;59939;52.516;13.420;2022-09-12T05:08:22;100728.75;;;15.97;71.12
72066;BME280;59939;52.516;13.420;2022-09-12T05:11:30;100730.13;;;15.91;71.13
72066;BME280;59939;52.516;13.420;2022-09-12T05:14:44;100726.59;;;15.70;72.19
72066;BME280;59939;52.516;13.420;2022-09-12T05:17:49;100729.78;;;16.05;71.17
72066;BME280;59939;52.516;13.420;2022-09-12T05:20:53;100732.13;;;16.64;68.96
72066;BME280;59939;52.516;13.420;2022-09-12T05:24:01;100731.84;;;16.93;67.20
72066;BME280;59939;52.516;13.420;2022-09-12T05:27:13;100739.91;;;15.89;71.31
72066;BME280;59939;52.516;13.420;2022-09-12T05:30:20;100737.53;;;16.12;71.18
72066;BME280;59939;52.516;13.420;2022-09-12T05:33:24;100737.53;;;16.12;71.03
72066;BME280;59939;52.516;13.420;2022-09-12T05:36:28;100742.47;;;16.91;67.90
72066;BME280;59939;52.516;13.420;2022-09-12T05:39:35;100749.56;;;16.89;67.68
72066;BME280;59939;52.516;13.420;2022-09-12T05:42:42;100755.09;;;17.29;65.88
72066;BME280;59939;52.516;13.420;2022-09-12T05:45:48;100741.53;;;18.11;62.56
72066;BME280;59939;52.516;13.420;2022-09-12T05:49:05;100752.63;;;18.11;62.66
72066;BME280;59939;52.516;13.420;2022-09-12T05:52:09;100751.00;;;18.26;61.56
72066;BME280;59939;52.516;13.420;2022-09-12T05:55:13;100758.19;;;18.11;61.99
72066;BME280;59939;52.516;13.420;2022-09-12T05:58:17;100768.91;;;17.41;64.48
72066;BME280;59939;52.516;13.420;2022-09-12T06:01:21;100762.28;;;18.80;59.77
72066;BME280;59939;52.516;13.420;2022-09-12T06:04:25;100765.59;;;19.40;57.66
72066;BME280;59939;52.516;13.420;2022-09-12T06:07:30;100764.13;;;19.27;57.50
72066;BME280;59939;52.516;13.420;2022-09-12T06:10:35;100768.50;;;19.86;55.87
72066;BME280;59939;52.516;13.420;2022-09-12T06:13:40;100768.47;;;19.09;58.29
72066;BME280;59939;52.516;13.420;2022-09-12T06:16:45;100766.03;;;19.42;57.32
72066;BME280;59939;52.516;13.420;2022-09-12T06:19:52;100764.25;;;19.73;56.21
72066;BME280;59939;52.516;13.420;2022-09-12T06:22:56;100767.84;;;19.54;57.05
72066;BME280;59939;52.516;13.420;2022-09-12T06:26:00;100782.72;;;19.42;56.97
72066;BME280;59939;52.516;13.420;2022-09-12T06:29:04;100779.13;;;18.87;59.35
72066;BME280;59939;52.516;13.420;2022-09-12T06:32:08;100770.84;;;19.26;58.09
72066;BME280;59939;52.516;13.420;2022-09-12T06:35:12;100779.09;;;19.03;58.57
72066;BME280;59939;52.516;13.420;2022-09-12T06:38:16;100776.69;;;19.21;58.24
72066;BME280;59939;52.516;13.420;2022-09-12T06:41:21;100784.69;;;18.40;60.69
72066;BME280;59939;52.516;13.420;2022-09-12T06:44:40;100782.91;;;18.48;61.21
72066;BME280;59939;52.516;13.420;2022-09-12T06:47:47;100776.34;;;19.22;58.55
72066;BME280;59939;52.516;13.420;2022-09-12T06:51:08;100783.75;;;18.99;59.35
72066;BME280;59939;52.516;13.420;2022-09-12T06:54:13;100788.38;;;19.46;58.67
72066;BME280;59939;52.516;13.420;2022-09-12T06:57:18;100780.94;;;19.92;56.74
72066;BME280;59939;52.516;13.420;2022-09-12T07:00:29;100782.19;;;19.75;57.27
72066;BME280;59939;52.516;13.420;2022-09-12T07:03:35;100783.59;;;19.66;57.63
72066;BME280;59939;52.516;13.420;2022-09-12T07:06:41;100775.94;;;20.70;54.70
72066;BME280;59939;52.516;13.420;2022-09-12T07:09:46;100773.13;;;21.86;51.26
72066;BME280;59939;52.516;13.420;2022-09-12T07:12:50;100777.81;;;24.33;44.71
72066;BME280;59939;52.516;13.420;2022-09-12T07:15:54;100768.09;;;25.20;42.07
72066;BME280;59939;52.516;13.420;2022-09-12T07:19:00;100772.81;;;25.51;42.17
72066;BME280;59939;52.516;13.420;2022-09-12T07:22:04;100769.66;;;25.39;42.05
72066;BME280;59939;52.516;13.420;2022-09-12T07:25:07;100762.66;;;27.23;37.85
72066;BME280;59939;52.516;13.420;2022-09-12T07:28:11;100756.69;;;28.09;36.50
72066;BME280;59939;52.516;13.420;2022-09-12T07:31:17;100759.19;;;29.20;33.53
72066;BME280;59939;52.516;13.420;2022-09-12T07:34:24;100767.47;;;26.41;38.19
72066;BME280;59939;52.516;13.420;2022-09-12T07:37:34;100770.19;;;25.99;39.14
72066;BME280;59939;52.516;13.420;2022-09-12T07:40:38;100771.81;;;25.93;39.39
72066;BME280;59939;52.516;13.420;2022-09-12T07:43:46;100765.50;;;25.75;40.13
72066;BME280;59939;52.516;13.420;2022-09-12T07:46:50;100768.16;;;24.88;41.72
72066;BME280;59939;52.516;13.420;2022-09-12T07:49:54;100768.25;;;26.45;38.46
72066;BME280;59939;52.516;13.420;2022-09-12T07:52:59;100766.94;;;26.56;38.58
72066;BME280;59939;52.516;13.420;2022-09-12T07:56:04;100763.91;;;29.27;33.45
72066;BME280;59939;52.516;13.420;2022-09-12T07:59:08;100767.06;;;28.89;33.81
72066;BME280;59939;52.516;13.420;2022-09-12T08:02:12;100774.22;;;28.24;35.10
72066;BME280;59939;52.516;13.420;2022-09-12T08:05:19;100763.44;;;28.42;34.92
72066;BME280;59939;52.516;13.420;2022-09-12T08:08:23;100764.72;;;28.11;34.34
72066;BME280;59939;52.516;13.420;2022-09-12T08:11:28;100770.91;;;30.79;30.92
72066;BME280;59939;52.516;13.420;2022-09-12T08:14:35;100772.88;;;31.40;29.67
72066;BME280;59939;52.516;13.420;2022-09-12T08:17:39;100764.81;;;31.39;29.19
72066;BME280;59939;52.516;13.420;2022-09-12T08:20:44;100769.41;;;30.91;29.44
72066;BME280;59939;52.516;13.420;2022-09-12T08:23:52;100779.03;;;26.98;36.52
72066;BME280;59939;52.516;13.420;2022-09-12T08:26:57;100766.47;;;28.75;33.17
72066;BME280;59939;52.516;13.420;2022-09-12T08:30:04;100778.88;;;26.16;37.49
72066;BME280;59939;52.516;13.420;2022-09-12T08:33:11;100772.16;;;24.80;40.79
72066;BME280;59939;52.516;13.420;2022-09-12T08:36:24;100770.34;;;26.30;37.97
72066;BME280;59939;52.516;13.420;2022-09-12T08:39:42;100773.69;;;25.30;39.60
72066;BME280;59939;52.516;13.420;2022-09-12T08:43:02;100766.16;;;27.31;35.62
72066;BME280;59939;52.516;13.420;2022-09-12T08:46:24;100772.41;;;28.37;33.63
72066;BME280;59939;52.516;13.420;2022-09-12T08:49:58;100766.09;;;29.59;31.23
72066;BME280;59939;52.516;13.420;2022-09-12T08:53:19;100768.56;;;29.57;30.93
72066;BME280;59939;52.516;13.420;2022-09-12T08:56:26;100762.50;;;30.43;29.34
72066;BME280;59939;52.516;13.420;2022-09-12T08:59:37;100766.41;;;31.40;28.57
72066;BME280;59939;52.516;13.420;2022-09-12T09:03:08;100757.69;;;32.74;26.49
72066;BME280;59939;52.516;13.420;2022-09-12T09:09:48;100757.47;;;29.66;29.16
72066;BME280;59939;52.516;13.420;2022-09-12T09:16:59;100758.75;;;28.79;30.38
72066;BME280;59939;52.516;13.420;2022-09-12T09:23:41;100754.16;;;32.10;26.93
72066;BME280;59939;52.516;13.420;2022-09-12T09:27:00;100754.31;;;29.97;29.16
72066;BME280;59939;52.516;13.420;2022-09-12T09:30:17;100744.34;;;33.18;24.18
72066;BME280;59939;52.516;13.420;2022-09-12T09:33:27;100744.72;;;35.36;21.56
72066;BME280;59939;52.516;13.420;2022-09-12T09:40:16;100744.97;;;29.04;29.67
72066;BME280;59939;52.516;13.420;2022-09-12T09:43:26;100749.97;;;28.73;29.26
72066;BME280;59939;52.516;13.420;2022-09-12T09:46:31;100747.66;;;31.17;26.11
72066;BME280;59939;52.516;13.420;2022-09-12T09:49:38;100740.56;;;30.47;27.18
72066;BME280;59939;52.516;13.420;2022-09-12T09:52:46;100738.13;;;29.81;28.71
72066;BME280;59939;52.516;13.420;2022-09-12T09:56:06;100736.25;;;30.27;27.90
72066;BME280;59939;52.516;13.420;2022-09-12T09:59:29;100737.72;;;28.83;29.23
72066;BME280;59939;52.516;13.420;2022-09-12T10:02:34;100738.16;;;28.08;30.07
72066;BME280;59939;52.516;13.420;2022-09-12T10:05:57;100736.66;;;25.57;34.03
72066;BME280;59939;52.516;13.420;2022-09-12T10:12:32;100743.28;;;25.08;36.21
72066;BME280;59939;52.516;13.420;2022-09-12T10:15:56;100739.31;;;26.44;33.77
72066;BME280;59939;52.516;13.420;2022-09-12T10:19:02;100735.16;;;26.59;33.15
72066;BME280;59939;52.516;13.420;2022-09-12T10:22:15;100736.91;;;24.82;35.70
72066;BME280;59939;52.516;13.420;2022-09-12T10:25:22;100728.69;;;27.04;32.32
72066;BME280;59939;52.516;13.420;2022-09-12T10:28:40;100725.78;;;30.56;26.88
72066;BME280;59939;52.516;13.420;2022-09-12T10:32:04;100722.16;;;28.02;29.79
72066;BME280;59939;52.516;13.420;2022-09-12T10:35:28;100723.28;;;32.12;24.55
72066;BME280;59939;52.516;13.420;2022-09-12T10:38:33;100711.16;;;32.93;22.45
72066;BME280;59939;52.516;13.420;2022-09-12T10:41:38;100712.34;;;32.83;23.40
72066;BME280;59939;52.516;13.420;2022-09-12T10:44:52;100711.38;;;33.74;21.74
72066;BME280;59939;52.516;13.420;2022-09-12T10:47:59;100706.38;;;31.83;23.58
72066;BME280;59939;52.516;13.420;2022-09-12T10:51:38;100710.72;;;34.10;21.15
72066;BME280;59939;52.516;13.420;2022-09-12T10:54:43;100705.50;;;34.94;19.88
72066;BME280;59939;52.516;13.420;2022-09-12T10:57:57;100700.28;;;32.79;21.98
72066;BME280;59939;52.516;13.420;2022-09-12T11:07:54;100712.84;;;26.38;32.70
72066;BME280;59939;52.516;13.420;2022-09-12T11:11:10;100706.63;;;25.47;33.94
72066;BME280;59939;52.516;13.420;2022-09-12T11:18:14;100718.91;;;24.65;36.10
72066;BME280;59939;52.516;13.420;2022-09-12T11:21:37;100711.94;;;23.38;36.71
72066;BME280;59939;52.516;13.420;2022-09-12T11:38:47;100696.22;;;31.02;24.89
72066;BME280;59939;52.516;13.420;2022-09-12T11:42:04;100702.75;;;29.37;26.38
72066;BME280;59939;52.516;13.420;2022-09-12T11:45:19;100699.34;;;28.43;28.07
72066;BME280;59939;52.516;13.420;2022-09-12T11:48:42;100687.38;;;30.55;25.10
72066;BME280;59939;52.516;13.420;2022-09-12T11:52:23;100696.25;;;27.53;29.08
72066;BME280;59939;52.516;13.420;2022-09-12T11:55:35;100692.03;;;27.07;28.98
72066;BME280;59939;52.516;13.420;2022-09-12T11:58:43;100688.16;;;27.85;28.44
72066;BME280;59939;52.516;13.420;2022-09-12T12:01:52;100683.53;;;30.33;24.79
72066;BME280;59939;52.516;13.420;2022-09-12T12:05:18;100675.28;;;28.35;27.00
72066;BME280;59939;52.516;13.420;2022-09-12T12:08:25;100673.63;;;27.60;28.03
72066;BME280;59939;52.516;13.420;2022-09-12T12:11:34;100676.72;;;29.81;25.77
72066;BME280;59939;52.516;13.420;2022-09-12T12:14:49;100665.13;;;30.25;25.84
72066;BME280;59939;52.516;13.420;2022-09-12T12:18:18;100668.78;;;29.20;27.07
72066;BME280;59939;52.516;13.420;2022-09-12T12:21:43;100658.13;;;27.99;28.47
72066;BME280;59939;52.516;13.420;2022-09-12T12:38:42;100644.97;;;27.65;29.43
72066;BME280;59939;52.516;13.420;2022-09-12T12:41:53;100657.72;;;25.37;32.96
72066;BME280;59939;52.516;13.420;2022-09-12T12:48:15;100667.25;;;24.52;33.94
72066;BME280;59939;52.516;13.420;2022-09-12T12:54:55;100655.72;;;27.43;29.56
72066;BME280;59939;52.516;13.420;2022-09-12T12:58:33;100650.41;;;26.88;30.39
72066;BME280;59939;52.516;13.420;2022-09-12T13:01:44;100651.03;;;27.06;29.89
72066;BME280;59939;52.516;13.420;2022-09-12T13:04:50;100664.22;;;25.89;31.98
72066;BME280;59939;52.516;13.420;2022-09-12T13:08:08;100645.16;;;28.51;27.40
72066;BME280;59939;52.516;13.420;2022-09-12T13:11:36;100651.81;;;25.83;31.65
72066;BME280;59939;52.516;13.420;2022-09-12T13:17:49;100641.91;;;24.77;34.38
72066;BME280;59939;52.516;13.420;2022-09-12T13:21:15;100636.88;;;25.93;32.15
72066;BME280;59939;52.516;13.420;2022-09-12T13:24:21;100635.88;;;24.75;33.73
72066;BME280;59939;52.516;13.420;2022-09-12T13:27:25;100628.97;;;26.22;31.30
72066;BME280;59939;52.516;13.420;2022-09-12T13:30:32;100626.59;;;27.53;29.59
72066;BME280;59939;52.516;13.420;2022-09-12T13:33:42;100627.72;;;26.27;30.50
72066;BME280;59939;52.516;13.420;2022-09-12T13:36:56;100622.63;;;27.24;29.29
72066;BME280;59939;52.516;13.420;2022-09-12T13:40:32;100614.13;;;26.97;30.05
72066;BME280;59939;52.516;13.420;2022-09-12T13:43:44;100617.81;;;24.83;33.80
72066;BME280;59939;52.516;13.420;2022-09-12T13:46:52;100615.97;;;24.23;34.96
72066;BME280;59939;52.516;13.420;2022-09-12T13:49:59;100608.13;;;25.06;33.50
72066;BME280;59939;52.516;13.420;2022-09-12T13:53:24;100600.94;;;25.01;32.83
72066;BME280;59939;52.516;13.420;2022-09-12T13:56:29;100608.28;;;25.47;32.24
72066;BME280;59939;52.516;13.420;2022-09-12T13:59:39;100602.22;;;24.71;34.30
72066;BME280;59939;52.516;13.420;2022-09-12T14:02:43;100608.75;;;24.40;34.79
72066;BME280;59939;52.516;13.420;2022-09-12T14:05:54;100599.72;;;25.02;34.50
72066;BME280;59939;52.516;13.420;2022-09-12T14:09:00;100605.56;;;24.38;34.72
72066;BME280;59939;52.516;13.420;2022-09-12T14:12:33;100608.00;;;23.79;36.25
72066;BME280;59939;52.516;13.420;2022-09-12T14:15:54;100603.19;;;23.69;36.08
72066;BME280;59939;52.516;13.420;2022-09-12T14:18:58;100597.19;;;23.88;36.59
72066;BME280;59939;52.516;13.420;2022-09-12T14:22:03;100601.47;;;24.67;34.99
72066;BME280;59939;52.516;13.420;2022-09-12T14:25:14;100609.59;;;23.87;36.51
72066;BME280;59939;52.516;13.420;2022-09-12T14:28:20;100599.59;;;23.86;36.39
72066;BME280;59939;52.516;13.420;2022-09-12T14:31:33;100599.88;;;24.70;35.02
72066;BME280;59939;52.516;13.420;2022-09-12T14:41:26;100592.72;;;23.30;37.53
72066;BME280;59939;52.516;13.420;2022-09-12T14:44:33;100589.50;;;24.53;34.94
72066;BME280;59939;52.516;13.420;2022-09-12T14:47:40;100589.56;;;23.67;36.83
72066;BME280;59939;52.516;13.420;2022-09-12T14:50:51;100582.72;;;23.51;36.99
72066;BME280;59939;52.516;13.420;2022-09-12T14:53:58;100586.31;;;23.19;36.96
72066;BME280;59939;52.516;13.420;2022-09-12T15:00:19;100583.03;;;22.96;37.99
72066;BME280;59939;52.516;13.420;2022-09-12T15:08:13;100584.19;;;22.81;37.94
72066;BME280;59939;52.516;13.420;2022-09-12T15:11:18;100566.03;;;22.53;38.40
72066;BME280;59939;52.516;13.420;2022-09-12T15:14:22;100569.44;;;22.94;38.06
72066;BME280;59939;52.516;13.420;2022-09-12T15:17:40;100577.00;;;22.87;36.99
72066;BME280;59939;52.516;13.420;2022-09-12T15:20:48;100583.81;;;22.86;36.58
72066;BME280;59939;52.516;13.420;2022-09-12T15:23:54;100581.50;;;23.13;36.48
72066;BME280;59939;52.516;13.420;2022-09-12T15:26:58;100573.47;;;23.04;37.00
72066;BME280;59939;52.516;13.420;2022-09-12T15:30:02;100570.25;;;22.95;37.21
72066;BME280;59939;52.516;13.420;2022-09-12T15:33:08;100578.75;;;22.40;37.93
72066;BME280;59939;52.516;13.420;2022-09-12T15:36:15;100571.22;;;22.51;38.09
72066;BME280;59939;52.516;13.420;2022-09-12T15:39:20;100558.34;;;23.33;36.72
72066;BME280;59939;52.516;13.420;2022-09-12T15:42:27;100564.53;;;22.73;38.16
72066;BME280;59939;52.516;13.420;2022-09-12T15:45:33;100561.44;;;22.89;37.88
72066;BME280;59939;52.516;13.420;2022-09-12T15:48:38;100557.53;;;23.33;37.05
72066;BME280;59939;52.516;13.420;2022-09-12T15:51:44;100554.31;;;23.52;37.16
72066;BME280;59939;52.516;13.420;2022-09-12T15:54:56;100554.16;;;22.77;38.27
72066;BME280;59939;52.516;13.420;2022-09-12T15:58:18;100558.72;;;23.21;37.58
72066;BME280;59939;52.516;13.420;2022-09-12T16:01:22;100558.72;;;23.21;37.80
72066;BME280;59939;52.516;13.420;2022-09-12T16:04:27;100554.34;;;23.91;36.35
72066;BME280;59939;52.516;13.420;2022-09-12T16:07:34;100552.72;;;23.44;37.52
72066;BME280;59939;52.516;13.420;2022-09-12T16:10:42;100549.91;;;23.40;37.51
72066;BME280;59939;52.516;13.420;2022-09-12T16:14:15;100545.53;;;23.50;37.12
72066;BME280;59939;52.516;13.420;2022-09-12T16:17:22;100545.50;;;23.18;37.95
72066;BME280;59939;52.516;13.420;2022-09-12T16:20:28;100545.50;;;23.11;38.13
72066;BME280;59939;52.516;13.420;2022-09-12T16:23:32;100539.94;;;23.25;38.06
72066;BME280;59939;52.516;13.420;2022-09-12T16:26:40;100541.53;;;23.40;37.84
72066;BME280;59939;52.516;13.420;2022-09-12T16:29:51;100536.72;;;23.44;38.11
72066;BME280;59939;52.516;13.420;2022-09-12T16:32:55;100538.25;;;22.92;39.10
72066;BME280;59939;52.516;13.420;2022-09-12T16:36:08;100532.34;;;23.29;38.36
72066;BME280;59939;52.516;13.420;2022-09-12T16:39:12;100530.72;;;23.18;38.94
72066;BME280;59939;52.516;13.420;2022-09-12T16:42:16;100529.94;;;23.28;38.55
72066;BME280;59939;52.516;13.420;2022-09-12T16:45:25;100521.56;;;23.60;37.98
72066;BME280;59939;52.516;13.420;2022-09-12T16:48:29;100527.06;;;22.89;39.56
72066;BME280;59939;52.516;13.420;2022-09-12T16:51:34;100517.53;;;23.47;38.14
72066;BME280;59939;52.516;13.420;2022-09-12T16:54:39;100522.25;;;22.89;39.27
72066;BME280;59939;52.516;13.420;2022-09-12T16:57:43;100509.94;;;23.54;38.26
72066;BME280;59939;52.516;13.420;2022-09-12T17:00:48;100507.16;;;23.29;38.74
72066;BME280;59939;52.516;13.420;2022-09-12T17:03:54;100506.31;;;23.82;37.85
72066;BME280;59939;52.516;13.420;2022-09-12T17:06:59;100500.31;;;23.13;39.63
72066;BME280;59939;52.516;13.420;2022-09-12T17:10:04;100502.72;;;23.18;39.37
72066;BME280;59939;52.516;13.420;2022-09-12T17:13:08;100498.34;;;23.24;39.47
72066;BME280;59939;52.516;13.420;2022-09-12T17:16:13;100497.16;;;23.64;38.75
72066;BME280;59939;52.516;13.420;2022-09-12T17:19:24;100497.53;;;23.41;38.79
72066;BME280;59939;52.516;13.420;2022-09-12T17:22:31;100495.31;;;21.73;42.12
72066;BME280;59939;52.516;13.420;2022-09-12T17:25:35;100489.69;;;21.66;42.49
72066;BME280;59939;52.516;13.420;2022-09-12T17:28:40;100488.25;;;21.93;42.08
72066;BME280;59939;52.516;13.420;2022-09-12T17:31:52;100504.38;;;21.59;42.69
72066;BME280;59939;52.516;13.420;2022-09-12T17:35:00;100488.13;;;21.72;42.36
72066;BME280;59939;52.516;13.420;2022-09-12T17:38:06;100489.00;;;21.32;43.32
72066;BME280;59939;52.516;13.420;2022-09-12T17:41:18;100499.31;;;21.75;42.56
72066;BME280;59939;52.516;13.420;2022-09-12T17:44:25;100493.72;;;21.75;42.51
72066;BME280;59939;52.516;13.420;2022-09-12T17:47:32;100498.19;;;21.87;42.56
72066;BME280;59939;52.516;13.420;2022-09-12T17:50:37;100501.81;;;21.36;43.61
72066;BME280;59939;52.516;13.420;2022-09-12T17:53:42;100498.00;;;21.59;43.34
72066;BME280;59939;52.516;13.420;2022-09-12T17:56:47;100496.09;;;21.70;43.29